createdAt,value
2023-03-22T00:01:22.387Z,8.04
2023-03-22T00:03:50.785Z,8.22
2023-03-22T00:06:18.381Z,7.41
2023-03-22T00:08:48.570Z,7.62
2023-03-22T00:11:15.366Z,7.69
2023-03-22T00:13:43.063Z,8.37
2023-03-22T00:16:11.126Z,7.53
2023-03-22T00:18:37.933Z,8.13
2023-03-22T00:21:05.577Z,8.50
2023-03-22T00:23:32.871Z,8.04
2023-03-22T00:25:59.940Z,7.87
2023-03-22T00:28:26.735Z,7.65
2023-03-22T00:30:59.847Z,8.35
2023-03-22T00:33:26.974Z,7.85
2023-03-22T00:36:02.483Z,8.23
2023-03-22T00:38:43.733Z,8.24
2023-03-22T00:41:14.000Z,8.21
2023-03-22T00:43:41.295Z,8.24
2023-03-22T00:46:09.280Z,7.94
2023-03-22T00:48:36.787Z,8.20
2023-03-22T00:51:05.065Z,7.47
2023-03-22T00:53:36.520Z,7.51
2023-03-22T00:56:04.763Z,8.01
2023-03-22T00:58:31.689Z,7.93
2023-03-22T01:00:58.658Z,8.08
2023-03-22T01:03:25.785Z,7.98
2023-03-22T01:05:56.918Z,7.76
2023-03-22T01:08:24.616Z,7.80
2023-03-22T01:10:51.897Z,7.32
2023-03-22T01:13:18.948Z,7.06
2023-03-22T01:15:48.005Z,6.77
2023-03-22T01:18:14.830Z,6.91
2023-03-22T01:20:41.784Z,7.08
2023-03-22T01:23:08.716Z,6.93
2023-03-22T01:25:35.834Z,6.41
2023-03-22T01:28:02.913Z,7.05
2023-03-22T01:30:30.595Z,7.38
2023-03-22T01:32:57.419Z,7.06
2023-03-22T01:35:24.461Z,6.76
2023-03-22T01:37:51.728Z,7.14
2023-03-22T01:40:18.754Z,6.49
2023-03-22T01:42:45.624Z,7.40
2023-03-22T01:45:15.570Z,7.37
2023-03-22T01:47:48.066Z,7.36
2023-03-22T01:50:16.670Z,7.31
2023-03-22T01:52:44.705Z,7.20
2023-03-22T01:55:12.687Z,7.29
2023-03-22T01:57:42.674Z,7.21
2023-03-22T02:00:16.087Z,7.08
2023-03-22T02:02:44.465Z,6.60
2023-03-22T02:05:12.360Z,6.90
2023-03-22T02:07:42.634Z,6.88
2023-03-22T02:10:17.961Z,6.41
2023-03-22T02:13:06.136Z,7.32
2023-03-22T02:15:39.803Z,7.19
2023-03-22T02:18:27.127Z,7.35
2023-03-22T02:21:18.720Z,7.39
2023-03-22T02:24:12.885Z,7.37
2023-03-22T02:27:09.383Z,7.21
2023-03-22T02:29:46.056Z,7.30
2023-03-22T02:32:34.236Z,7.35
2023-03-22T02:35:25.668Z,7.37
2023-03-22T02:38:12.413Z,7.42
2023-03-22T02:40:46.110Z,7.09
2023-03-22T02:43:46.343Z,7.51
2023-03-22T02:46:19.140Z,7.41
2023-03-22T02:49:09.104Z,7.39
2023-03-22T02:51:46.724Z,7.40
2023-03-22T02:54:24.394Z,6.87
2023-03-22T02:57:00.436Z,6.56
2023-03-22T02:59:29.997Z,7.10
2023-03-22T03:02:00.923Z,6.48
2023-03-22T03:04:32.389Z,6.87
2023-03-22T03:07:04.439Z,6.35
2023-03-22T03:09:33.201Z,6.87
2023-03-22T03:11:59.987Z,6.41
2023-03-22T03:14:28.225Z,7.26
2023-03-22T03:17:10.819Z,6.47
2023-03-22T03:20:09.307Z,7.30
2023-03-22T03:22:50.225Z,6.97
2023-03-22T03:25:34.112Z,6.94
2023-03-22T03:28:10.322Z,6.72
2023-03-22T03:30:48.226Z,6.27
2023-03-22T03:33:17.901Z,6.75
2023-03-22T03:35:51.072Z,6.65
2023-03-22T03:38:23.540Z,6.73
2023-03-22T03:41:01.224Z,6.26
2023-03-22T03:43:28.344Z,6.64
2023-03-22T03:45:55.921Z,6.91
2023-03-22T03:48:27.378Z,6.63
2023-03-22T03:50:56.281Z,6.28
2023-03-22T03:53:23.114Z,6.89
2023-03-22T03:55:50.304Z,6.85
2023-03-22T03:58:17.173Z,7.23
2023-03-22T04:00:46.175Z,7.07
2023-03-22T04:03:14.151Z,7.11
2023-03-22T04:05:41.491Z,7.10
2023-03-22T04:08:08.942Z,6.43
2023-03-22T04:10:35.993Z,6.50
2023-03-22T04:13:02.713Z,6.53
2023-03-22T04:15:29.445Z,7.19
2023-03-22T04:17:56.275Z,7.02
2023-03-22T04:20:22.964Z,7.20
2023-03-22T04:22:49.712Z,7.30
2023-03-22T04:25:18.282Z,7.05
2023-03-22T04:27:50.948Z,6.86
2023-03-22T04:30:21.974Z,7.04
2023-03-22T04:32:49.573Z,6.96
2023-03-22T04:35:17.447Z,7.17
2023-03-22T04:37:45.746Z,7.03
2023-03-22T04:40:17.453Z,6.66
2023-03-22T04:42:44.578Z,7.18
2023-03-22T04:45:12.751Z,7.14
2023-03-22T04:47:40.610Z,7.13
2023-03-22T04:50:08.571Z,6.95
2023-03-22T04:52:38.055Z,7.17
2023-03-22T04:55:05.022Z,6.98
2023-03-22T04:57:31.974Z,7.23
2023-03-22T04:59:58.654Z,7.18
2023-03-22T05:02:25.541Z,7.09
2023-03-22T05:04:52.274Z,7.22
2023-03-22T05:07:23.001Z,7.29
2023-03-22T05:09:52.534Z,6.91
2023-03-22T05:12:19.396Z,6.94
2023-03-22T05:14:46.334Z,7.69
2023-03-22T05:17:13.164Z,7.68
2023-03-22T05:19:40.036Z,6.62
2023-03-22T05:22:07.000Z,6.81
2023-03-22T05:24:33.693Z,6.77
2023-03-22T05:27:01.153Z,7.16
2023-03-22T05:29:28.485Z,7.85
2023-03-22T05:31:55.545Z,7.25
2023-03-22T05:34:22.517Z,7.46
2023-03-22T05:36:51.611Z,7.14
2023-03-22T05:39:18.653Z,7.24
2023-03-22T05:41:46.154Z,8.00
2023-03-22T05:44:12.870Z,7.99
2023-03-22T05:46:39.525Z,8.06
2023-03-22T05:49:06.207Z,8.06
2023-03-22T05:51:33.003Z,8.02
2023-03-22T05:53:59.663Z,8.07
2023-03-22T05:56:27.034Z,8.25
2023-03-22T05:58:53.929Z,7.81
2023-03-22T06:01:21.582Z,7.85
2023-03-22T06:03:50.868Z,8.52
2023-03-22T06:06:17.509Z,8.34
2023-03-22T06:08:45.808Z,8.38
2023-03-22T06:11:12.831Z,8.30
2023-03-22T06:13:39.529Z,8.60
2023-03-22T06:16:06.752Z,8.63
2023-03-22T06:18:33.631Z,8.23
2023-03-22T06:21:00.889Z,8.41
2023-03-22T06:23:28.025Z,8.54
2023-03-22T06:25:54.957Z,8.54
2023-03-22T06:28:21.953Z,8.56
2023-03-22T06:30:48.764Z,8.47
2023-03-22T06:33:15.996Z,8.54
2023-03-22T06:35:42.746Z,8.10
2023-03-22T06:38:09.699Z,8.28
2023-03-22T06:40:36.566Z,8.45
2023-03-22T06:43:06.852Z,8.92
2023-03-22T06:45:34.167Z,8.86
2023-03-22T06:48:01.789Z,8.84
2023-03-22T06:50:29.882Z,9.60
2023-03-22T06:52:57.091Z,9.05
2023-03-22T06:55:25.383Z,8.70
2023-03-22T06:57:52.091Z,9.22
2023-03-22T07:00:19.141Z,9.50
2023-03-22T07:02:46.139Z,8.63
2023-03-22T07:05:12.845Z,9.00
2023-03-22T07:07:39.564Z,9.45
2023-03-22T07:10:08.016Z,9.46
2023-03-22T07:12:35.330Z,9.08
2023-03-22T07:15:02.941Z,9.67
2023-03-22T07:17:29.944Z,9.61
2023-03-22T07:19:56.789Z,9.83
2023-03-22T07:22:24.910Z,9.36
2023-03-22T07:24:57.231Z,8.81
2023-03-22T07:27:25.444Z,9.76
2023-03-22T07:29:52.223Z,9.48
2023-03-22T07:32:19.450Z,9.60
2023-03-22T07:34:46.488Z,9.64
2023-03-22T07:37:15.035Z,9.18
2023-03-22T07:39:41.885Z,8.79
2023-03-22T07:42:09.626Z,9.65
2023-03-22T07:44:36.664Z,9.21
2023-03-22T07:47:03.704Z,9.53
2023-03-22T07:49:31.364Z,9.22
2023-03-22T07:51:58.188Z,9.58
2023-03-22T07:54:33.297Z,8.64
2023-03-22T07:57:01.766Z,9.25
2023-03-22T07:59:28.941Z,9.29
2023-03-22T08:01:55.826Z,8.76
2023-03-22T08:04:22.915Z,8.64
2023-03-22T08:06:50.097Z,8.78
2023-03-22T08:09:17.419Z,8.96
2023-03-22T08:11:44.102Z,9.31
2023-03-22T08:14:11.211Z,8.99
2023-03-22T08:16:38.606Z,9.23
2023-03-22T08:19:05.643Z,9.15
2023-03-22T08:21:33.869Z,9.07
2023-03-22T08:24:01.018Z,8.29
2023-03-22T08:26:27.926Z,9.08
2023-03-22T08:28:54.850Z,8.97
2023-03-22T08:31:22.569Z,8.91
2023-03-22T08:33:49.605Z,8.90
2023-03-22T08:36:20.281Z,8.62
2023-03-22T08:38:47.082Z,8.91
2023-03-22T08:41:13.993Z,8.87
2023-03-22T08:43:40.595Z,8.92
2023-03-22T08:46:07.331Z,8.85
2023-03-22T08:48:35.884Z,8.97
2023-03-22T08:51:03.108Z,8.81
2023-03-22T08:53:29.900Z,8.29
2023-03-22T08:55:58.177Z,8.56
2023-03-22T08:58:25.193Z,8.90
2023-03-22T09:00:52.409Z,8.67
2023-03-22T09:03:19.363Z,8.92
2023-03-22T09:05:46.749Z,8.99
2023-03-22T09:08:19.088Z,8.53
2023-03-22T09:10:51.615Z,8.78
2023-03-22T09:13:19.585Z,8.59
2023-03-22T09:15:46.673Z,8.28
2023-03-22T09:18:14.330Z,8.62
2023-03-22T09:20:41.179Z,8.71
2023-03-22T09:23:08.149Z,8.26
2023-03-22T09:25:34.787Z,7.92
2023-03-22T09:28:02.513Z,8.47
2023-03-22T09:30:30.028Z,8.41
2023-03-22T09:32:56.746Z,8.55
2023-03-22T09:35:23.425Z,8.67
2023-03-22T09:37:53.340Z,8.61
2023-03-22T09:40:21.801Z,8.28
2023-03-22T09:42:52.364Z,8.85
2023-03-22T09:45:27.755Z,8.90
2023-03-22T09:47:57.331Z,8.53
2023-03-22T09:50:30.087Z,8.67
2023-03-22T09:52:57.824Z,8.34
2023-03-22T09:55:39.973Z,8.75
2023-03-22T09:58:12.065Z,9.25
2023-03-22T10:00:45.972Z,8.78
2023-03-22T10:03:51.596Z,9.28
2023-03-22T10:06:24.003Z,8.97
2023-03-22T10:09:19.634Z,9.23
2023-03-22T10:12:13.567Z,9.26
2023-03-22T10:14:44.660Z,8.79
2023-03-22T10:17:18.382Z,9.44
2023-03-22T10:20:08.868Z,9.48
2023-03-22T10:22:41.137Z,9.59
2023-03-22T10:25:09.535Z,9.61
2023-03-22T10:27:37.535Z,9.30
2023-03-22T10:30:20.277Z,9.74
2023-03-22T10:33:12.348Z,9.31
2023-03-22T10:35:39.494Z,9.74
2023-03-22T10:38:18.082Z,8.92
2023-03-22T10:40:46.331Z,9.69
2023-03-22T10:43:32.490Z,9.65
2023-03-22T10:46:03.135Z,9.95
2023-03-22T10:48:37.279Z,9.55
2023-03-22T10:51:04.426Z,10.07
2023-03-22T10:53:48.309Z,10.24
2023-03-22T10:56:18.851Z,10.24
2023-03-22T10:58:46.398Z,9.90
2023-03-22T11:01:17.259Z,10.10
2023-03-22T11:03:52.257Z,10.57
2023-03-22T11:06:23.985Z,10.38
2023-03-22T11:08:52.262Z,10.00
2023-03-22T11:11:26.160Z,10.03
2023-03-22T11:14:05.753Z,9.91
2023-03-22T11:16:41.059Z,10.16
2023-03-22T11:19:17.967Z,9.71
2023-03-22T11:21:45.581Z,9.51
2023-03-22T11:24:14.366Z,9.87
2023-03-22T11:26:41.868Z,9.71
2023-03-22T11:29:17.303Z,9.62
2023-03-22T11:31:57.475Z,9.59
2023-03-22T11:34:27.864Z,9.53
2023-03-22T11:36:56.897Z,9.91
2023-03-22T11:39:28.378Z,10.34
2023-03-22T11:42:01.904Z,10.58
2023-03-22T11:44:34.961Z,10.13
2023-03-22T11:47:04.595Z,10.37
2023-03-22T11:49:48.704Z,10.52
2023-03-22T11:52:23.380Z,10.80
2023-03-22T11:54:51.347Z,10.39
2023-03-22T11:57:23.425Z,9.80
2023-03-22T11:59:53.203Z,10.65
2023-03-22T12:02:39.075Z,10.80
2023-03-22T12:05:20.861Z,10.83
2023-03-22T12:07:51.398Z,10.02
2023-03-22T12:10:42.392Z,10.97
2023-03-22T12:13:21.368Z,10.36
2023-03-22T12:16:08.023Z,11.01
2023-03-22T12:18:50.457Z,11.12
2023-03-22T12:21:17.216Z,11.14
2023-03-22T12:23:44.143Z,10.85
2023-03-22T12:26:26.104Z,11.25
2023-03-22T12:29:06.179Z,11.53
2023-03-22T12:31:41.373Z,11.26
2023-03-22T12:34:20.360Z,11.12
2023-03-22T12:36:51.723Z,11.37
2023-03-22T12:39:41.256Z,11.05
2023-03-22T12:42:22.660Z,11.08
2023-03-22T12:45:04.202Z,11.60
2023-03-22T12:48:07.029Z,11.18
2023-03-22T12:50:41.968Z,11.40
2023-03-22T12:53:15.389Z,11.18
2023-03-22T12:55:44.522Z,11.33
2023-03-22T12:58:18.714Z,10.99
2023-03-22T13:00:50.364Z,11.71
2023-03-22T13:03:20.136Z,11.39
2023-03-22T13:05:59.417Z,10.82
2023-03-22T13:08:26.374Z,11.08
2023-03-22T13:11:05.311Z,11.41
2023-03-22T13:13:39.961Z,10.72
2023-03-22T13:16:09.554Z,11.36
2023-03-22T13:18:36.468Z,11.45
2023-03-22T13:21:29.481Z,11.53
2023-03-22T13:24:05.623Z,11.73
2023-03-22T13:26:51.677Z,12.05
2023-03-22T13:29:38.488Z,12.01
2023-03-22T13:32:30.819Z,12.37
2023-03-22T13:34:57.755Z,11.95
2023-03-22T13:37:48.038Z,12.22
2023-03-22T13:40:36.600Z,11.41
2023-03-22T13:43:31.767Z,12.56
2023-03-22T13:46:14.034Z,12.15
2023-03-22T13:48:47.155Z,12.28
2023-03-22T13:51:23.595Z,12.41
2023-03-22T13:54:16.461Z,12.67
2023-03-22T13:56:57.382Z,12.76
2023-03-22T13:59:27.230Z,12.17
2023-03-22T14:02:00.603Z,11.54
2023-03-22T14:04:35.146Z,12.02
2023-03-22T14:07:08.890Z,11.20
2023-03-22T14:09:51.601Z,11.55
2023-03-22T14:12:45.980Z,11.68
2023-03-22T14:15:23.212Z,11.66
2023-03-22T14:17:59.761Z,12.65
2023-03-22T14:20:33.838Z,12.30
